Pagrindinis puslapis
METAR-TAF:

METAR-TAF

Oro uostai :

Sharjah, Jungtiniai Arabų Emyratai

platuma: 25-20N, ilguma: 055-31E, Aukštis: 35 m

Dabartinis oras

Ataskaita buvo paskelbta 16 minutes, ne 10:00 UTC
Vėjas 10 kt iš Šiaurės Vakarų
Temperatūra 35°C
Drėgmė 34%
Slėgis 1013 hPa
Matomumas 10 km arba daugiau
nėra debesų žemiau 1500 m ir nėra kamuolinių lietaus debesų

METAR: OMSJ 141000Z 31010KT CAVOK 35/17 Q1013 NOSIG

Laikas: 14:16 (10:16 UTC)

Prognozė

Ataskaita buvo paskelbta 5 valandos ir 21 minutes, ne 04:55 UTC
Prognozė galioja nuo 14 metu 06 UTC su 15 metu 12 UTC
Vėjas 7 kt iš Pietų/Pietryčių
Matomumas: 8000 m
Tapsmas
nuo 14 metu 08 UTC su 14 metu 10 UTC
Vėjas 13 kt iš Šiaurės/Šiaurės Vakarų
Tapsmas
nuo 14 metu 15 UTC su 14 metu 17 UTC
Vėjas 5 kt iš Rytų
Tapsmas
nuo 15 metu 02 UTC su 15 metu 04 UTC
Vėjas 10 kt iš Pietų
Tapsmas
nuo 15 metu 08 UTC su 15 metu 10 UTC
Vėjas 12 kt iš Šiaurės/Šiaurės Vakarų

TAF: OMSJ 140455Z 1406/1512 16007KT 8000 NSC BECMG 1408/1410 33013KT BECMG 1415/1417 10005KT BECMG 1502/1504 17010KT BECMG 1508/1510 33012KT

Orai ataskaitas ir orų prognozės (METAR, TAF).

turimą stotys yra geltonos ir raudonos taškus žemėlapyje.

Perkelti pele per norėdami pamatyti stoties vardą.

Tada spustelėkite, norėdami matyti oro stebėjimo ir prognozės.

Norėdami pakeisti žemėlapį: spustelėkite ant žalios mygtukų su juodo kryžiaus žemyn,; žalią mygtuką su brūkšneliu, jei norite nutolinti; arba žalių rodyklių gretimoms žemėlapius.


METAR-TAF: